Portada
METAR-TAF:

METAR-TAF

Aeropuertos :

Barcelona, Venezuela

Aeropuerto Internacional General José Antonio Anzoátegui

latitud: 10-07N, longitud: 064-41W, altitud: 7 m

METAR: falta

Hora: 11:51 (15:51 UTC)

Pronóstico

El informe se hizo hace 11 horas y 51 minutos, a las 04:00 UTC
Pronóstico válido del 12 a las 06 UTC al 13 a las 06 UTC
Viento kt del norte
Visibilidad 10 km o más
Escasas nubes a una altura de 1000 ft
Evolucionando progresivamente
del 12 a las 06 UTC al 12 a las 11 UTC
Visibilidad 10 km o más
sin nubes por debajo de 1500 m y sin presencia de cumulonimbus.
A partir de las 12 a las 1200 UTC
Viento 3 kt del noreste
Visibilidad 10 km o más
Escasas nubes a una altura de 1300 ft

TAF: SVBC 120400Z 1206/1306 00000KT 9999 FEW010 TX34/18Z TN25/08Z BECMG 1206/1211 CAVOK FM121200 05003KT 9999 FEW013

Observaciones y pronósticos meteorológicos de más de 4000 aeropuertos (mensajes METAR y TAF).

Los puntos amarillos y rojos representan las estaciones disponibles.

Ponga el ratón en el punto deseado para ver el nombre de la estación.

Haga clic para ver las observaciones y los pronósticos meteorológicos.

Para cambiar el mapa : haga clic en los botones verdes con una cruz de color negro para hacer un zoom, en el botón verde con un guión para alejar o en las flechas verdes para mapas adyacentes.


METAR-TAF: